Time;durP1;ratioP1;P1;durP2;ratioP2;P2;SDS_P1;SDS_P2;PMS_P1;PMS_P2;Temp;Humidity;BMP_temperature;BMP_pressure;BME280_temperature;BME280_humidity;BME280_pressure;Samples;Min_cycle;Max_cycle;Signal;HPM_P1;HPM_P2
2023/03/16 00:01:38;;;;;;;;;;;;;;;4.50;67.77;101742.63;5023119;28;20006;-62
2023/03/16 00:04:03;;;;;;;;;;;;;;;4.51;67.74;101744.31;5026290;28;19925;-62
2023/03/16 00:06:29;;;;;;;;;;;;;;;4.52;68.23;101740.75;5019408;28;19982;-62
2023/03/16 00:08:57;;;;;;;;;;;;;;;4.52;68.50;101727.59;5022405;28;19922;-62
2023/03/16 00:11:23;;;;;;;;;;;;;;;4.54;68.76;101736.22;5019593;28;19916;-62
2023/03/16 00:13:48;;;;;;;;;;;;;;;4.56;68.88;101741.34;5018744;28;20389;-62
2023/03/16 00:16:15;;;;;;;;;;;;;;;4.57;68.81;101725.47;5026927;28;20409;-62
2023/03/16 00:18:41;;;;;;;;;;;;;;;4.59;68.74;101727.97;5018236;28;19972;-62
2023/03/16 00:21:06;;;;;;;;;;;;;;;4.62;68.81;101728.59;5025844;28;20398;-62
2023/03/16 00:23:34;;;;;;;;;;;;;;;4.63;68.95;101718.94;5023474;28;20031;-62
2023/03/16 00:26:01;;;;;;;;;;;;;;;4.66;69.05;101721.34;5028379;28;19917;-62
2023/03/16 00:28:27;;;;;;;;;;;;;;;4.69;68.79;101715.03;5021646;28;19913;-62
2023/03/16 00:30:57;;;;;;;;;;;;;;;4.71;69.07;101710.50;5023387;28;20440;-62
2023/03/16 00:33:23;;;;;;;;;;;;;;;4.75;69.16;101714.56;5018014;28;19913;-62
2023/03/16 00:35:48;;;;;;;;;;;;;;;4.75;69.36;101715.41;5025211;28;19917;-62
2023/03/16 00:38:13;;;;;;;;;;;;;;;4.78;69.39;101709.09;5026493;28;19924;-62
2023/03/16 00:40:39;;;;;;;;;;;;;;;4.79;69.79;101708.97;5026868;28;19917;-62
2023/03/16 00:43:04;;;;;;;;;;;;;;;4.81;69.79;101711.50;5022041;28;19925;-62
2023/03/16 00:45:29;;;;;;;;;;;;;;;4.83;69.91;101707.78;5024036;28;20012;-62
2023/03/16 00:47:54;;;;;;;;;;;;;;;4.87;69.88;101703.13;5020388;28;19979;-62
2023/03/16 00:50:21;;;;;;;;;;;;;;;4.89;70.21;101695.97;5019850;28;20414;-62
2023/03/16 00:52:46;;;;;;;;;;;;;;;4.92;69.86;101687.88;5025470;28;19923;-62
2023/03/16 00:55:12;;;;;;;;;;;;;;;4.92;70.18;101691.34;5027390;28;19917;-62
2023/03/16 00:57:37;;;;;;;;;;;;;;;4.92;70.38;101686.09;5034100;28;20306;-62
2023/03/16 01:00:11;;;;;;;;;;;;;;;4.94;70.80;101693.88;5027713;28;19917;-62
2023/03/16 01:02:36;;;;;;;;;;;;;;;4.94;70.80;101680.72;5023870;28;19917;-62
2023/03/16 01:05:04;;;;;;;;;;;;;;;4.95;70.60;101677.13;5021527;28;20436;-62
2023/03/16 01:07:30;;;;;;;;;;;;;;;4.96;70.53;101668.28;5029044;28;19979;-62
2023/03/16 01:09:55;;;;;;;;;;;;;;;4.96;70.53;101666.47;5030447;28;19941;-62
2023/03/16 01:12:20;;;;;;;;;;;;;;;4.97;70.35;101667.31;5024363;28;20000;-62
2023/03/16 01:14:45;;;;;;;;;;;;;;;4.97;70.89;101662.88;5020131;28;20405;-62
2023/03/16 01:17:12;;;;;;;;;;;;;;;4.95;71.10;101649.00;5022022;28;20597;-62
2023/03/16 01:19:37;;;;;;;;;;;;;;;4.97;70.97;101646.25;5028220;28;20441;-62
2023/03/16 01:22:06;;;;;;;;;;;;;;;4.96;70.85;101647.22;5028764;28;19917;-62
2023/03/16 01:24:32;;;;;;;;;;;;;;;4.94;71.28;101642.06;5030807;28;20333;-62
2023/03/16 01:26:58;;;;;;;;;;;;;;;4.94;71.27;101641.22;5026663;28;20026;-62
2023/03/16 01:29:24;;;;;;;;;;;;;;;4.93;71.69;101643.03;5025238;28;20406;-62
2023/03/16 01:31:49;;;;;;;;;;;;;;;4.92;71.67;101636.09;5025446;28;19918;-62
2023/03/16 01:34:17;;;;;;;;;;;;;;;4.93;71.37;101626.38;5031438;28;19917;-62
2023/03/16 01:36:43;;;;;;;;;;;;;;;4.92;71.79;101632.59;5024468;28;19919;-62
2023/03/16 01:39:09;;;;;;;;;;;;;;;4.90;71.71;101632.69;5029088;28;19917;-62
2023/03/16 01:41:34;;;;;;;;;;;;;;;4.92;71.96;101629.97;5029226;28;20004;-62
2023/03/16 01:43:59;;;;;;;;;;;;;;;4.93;71.62;101634.28;5030788;28;20011;-62
2023/03/16 01:46:26;;;;;;;;;;;;;;;4.95;71.80;101642.91;5030391;28;20000;-62
2023/03/16 01:48:51;;;;;;;;;;;;;;;4.96;71.78;101628.78;5028740;28;20055;-62
2023/03/16 01:51:21;;;;;;;;;;;;;;;4.97;71.68;101633.09;5026250;28;19924;-62
2023/03/16 01:53:52;;;;;;;;;;;;;;;4.99;71.22;101631.19;5027341;28;19924;-62
2023/03/16 01:56:22;;;;;;;;;;;;;;;5.01;71.02;101628.44;5021777;28;19917;-62
2023/03/16 01:58:49;;;;;;;;;;;;;;;5.02;71.10;101625.69;5025672;28;19917;-62
2023/03/16 02:01:15;;;;;;;;;;;;;;;4.93;71.22;101616.69;5025296;28;19921;-62
2023/03/16 02:03:41;;;;;;;;;;;;;;;5.03;71.00;101610.72;5026782;28;20000;-62
2023/03/16 02:06:11;;;;;;;;;;;;;;;5.02;71.02;101604.63;5025275;28;19923;-62
2023/03/16 02:08:38;;;;;;;;;;;;;;;5.03;71.45;101613.38;5025568;28;20279;-62
2023/03/16 02:11:04;;;;;;;;;;;;;;;5.03;71.44;101610.72;5024375;28;19917;-62
2023/03/16 02:13:32;;;;;;;;;;;;;;;5.01;71.43;101608.22;5029803;28;19921;-62
2023/03/16 02:15:58;;;;;;;;;;;;;;;4.99;71.60;101594.34;5025634;28;19913;-62
2023/03/16 02:18:23;;;;;;;;;;;;;;;4.95;71.88;101587.63;5025995;28;19971;-62
2023/03/16 02:20:51;;;;;;;;;;;;;;;4.95;71.86;101574.47;5026776;28;19963;-62
2023/03/16 02:23:17;;;;;;;;;;;;;;;4.93;72.01;101584.28;5027265;28;19920;-62
2023/03/16 02:25:58;;;;;;;;;;;;;;;4.91;71.96;101592.25;5027925;28;19932;-62
2023/03/16 02:28:46;;;;;;;;;;;;;;;4.91;71.96;101589.63;5021059;28;20444;-62
2023/03/16 02:31:12;;;;;;;;;;;;;;;4.89;72.15;101582.81;5019113;28;19928;-62
2023/03/16 02:33:38;;;;;;;;;;;;;;;4.87;72.35;101590.81;5022237;28;19922;-62
2023/03/16 02:36:04;;;;;;;;;;;;;;;4.86;72.75;101586.50;5021642;28;19919;-62
2023/03/16 02:38:30;;;;;;;;;;;;;;;4.86;72.36;101589.16;5029666;28;19925;-62
2023/03/16 02:41:00;;;;;;;;;;;;;;;4.82;73.35;101598.22;5028803;28;20652;-62
2023/03/16 02:43:32;;;;;;;;;;;;;;;4.79;73.36;101592.34;5023425;28;20314;-62
2023/03/16 02:45:58;;;;;;;;;;;;;;;4.76;73.40;101593.44;5028473;28;20398;-62
2023/03/16 02:48:43;;;;;;;;;;;;;;;4.76;73.45;101595.22;5019235;28;19953;-62
2023/03/16 02:51:08;;;;;;;;;;;;;;;4.76;73.44;101592.59;5023010;28;19928;-62
2023/03/16 02:53:33;;;;;;;;;;;;;;;4.77;73.46;101586.38;5023255;28;19925;-62
2023/03/16 02:55:58;;;;;;;;;;;;;;;4.75;73.52;101589.13;5020868;28;19994;-62
2023/03/16 02:58:23;;;;;;;;;;;;;;;4.75;73.99;101586.50;5023218;28;19917;-62
2023/03/16 03:00:48;;;;;;;;;;;;;;;4.74;74.00;101578.72;5022202;28;19914;-62
2023/03/16 03:03:14;;;;;;;;;;;;;;;4.75;74.05;101585.66;5026863;28;20011;-62
2023/03/16 03:05:39;;;;;;;;;;;;;;;4.75;73.67;101573.34;5026596;28;19929;-62
2023/03/16 03:08:05;;;;;;;;;;;;;;;4.76;73.27;101579.44;5022673;28;19996;-62
2023/03/16 03:10:30;;;;;;;;;;;;;;;4.75;74.05;101577.75;5023687;28;19928;-62
2023/03/16 03:12:56;;;;;;;;;;;;;;;4.73;74.27;101577.03;5023762;28;19986;-62
2023/03/16 03:15:22;;;;;;;;;;;;;;;4.72;74.28;101565.66;5022257;28;19999;-62
2023/03/16 03:17:47;;;;;;;;;;;;;;;4.71;74.48;101573.69;5021528;28;19913;-62
2023/03/16 03:20:14;;;;;;;;;;;;;;;4.73;73.97;101583.13;5025512;28;20462;-62
2023/03/16 03:22:39;;;;;;;;;;;;;;;4.73;74.10;101566.50;5026530;28;19947;-62
2023/03/16 03:25:04;;;;;;;;;;;;;;;4.72;74.10;101559.56;5023119;28;19991;-62
2023/03/16 03:27:30;;;;;;;;;;;;;;;4.74;73.92;101558.50;5026489;28;19921;-62
2023/03/16 03:29:55;;;;;;;;;;;;;;;4.76;74.15;101550.50;5022459;28;19975;-62
2023/03/16 03:32:20;;;;;;;;;;;;;;;4.76;74.24;101555.75;5024449;28;20302;-62
2023/03/16 03:34:45;;;;;;;;;;;;;;;4.76;74.15;101550.50;5026266;28;19924;-62
2023/03/16 03:37:11;;;;;;;;;;;;;;;4.76;74.30;101553.97;5022514;28;19924;-62
2023/03/16 03:39:38;;;;;;;;;;;;;;;4.76;74.47;101555.75;5017817;28;19921;-62
2023/03/16 03:42:03;;;;;;;;;;;;;;;4.75;74.48;101557.53;5024900;28;19920;-62
2023/03/16 03:44:31;;;;;;;;;;;;;;;4.74;74.52;101553.25;5024480;28;19920;-62
2023/03/16 03:46:56;;;;;;;;;;;;;;;4.73;74.51;101548.09;5021367;28;19925;-62
2023/03/16 03:49:21;;;;;;;;;;;;;;;4.73;74.90;101540.19;5023202;28;19930;-62
2023/03/16 03:51:47;;;;;;;;;;;;;;;4.72;75.17;101551.69;5025050;28;19925;-62
2023/03/16 03:54:12;;;;;;;;;;;;;;;4.71;75.20;101547.38;5026563;28;19921;-62
2023/03/16 03:56:37;;;;;;;;;;;;;;;4.70;75.01;101543.91;5023993;28;19952;-62
2023/03/16 03:59:02;;;;;;;;;;;;;;;4.68;75.32;101537.91;5022491;28;21051;-62
2023/03/16 04:01:27;;;;;;;;;;;;;;;4.68;75.15;101544.97;5022456;28;19924;-62
2023/03/16 04:03:52;;;;;;;;;;;;;;;4.62;75.23;101539.19;5025525;28;20357;-62
2023/03/16 04:06:18;;;;;;;;;;;;;;;4.63;75.55;101538.28;5025612;28;20000;-62
2023/03/16 04:08:43;;;;;;;;;;;;;;;4.62;75.93;101533.09;5023542;28;19921;-62
2023/03/16 04:11:08;;;;;;;;;;;;;;;4.62;75.80;101541.00;5019229;28;19920;-62
2023/03/16 04:13:34;;;;;;;;;;;;;;;4.61;75.75;101532.25;5023956;28;19921;-62
2023/03/16 04:16:02;;;;;;;;;;;;;;;4.60;76.27;101535.84;5017730;28;19918;-62
2023/03/16 04:18:28;;;;;;;;;;;;;;;4.61;76.34;101531.41;5017341;28;19917;-62
2023/03/16 04:20:53;;;;;;;;;;;;;;;4.61;76.35;101534.03;5022912;28;19967;-62
2023/03/16 04:23:18;;;;;;;;;;;;;;;4.60;76.37;101529.75;5019235;28;19924;-62
2023/03/16 04:25:44;;;;;;;;;;;;;;;4.60;76.26;101522.69;5026116;28;19970;-62
2023/03/16 04:28:09;;;;;;;;;;;;;;;4.61;76.30;101510.38;5026201;28;19913;-62
2023/03/16 04:30:35;;;;;;;;;;;;;;;4.62;76.07;101517.31;5027913;28;19925;-62
2023/03/16 04:33:00;;;;;;;;;;;;;;;4.62;76.01;101517.31;5022959;28;20156;-62
2023/03/16 04:35:25;;;;;;;;;;;;;;;4.63;76.09;101511.97;5030800;28;20421;-62
2023/03/16 04:37:50;;;;;;;;;;;;;;;4.64;75.98;101523.31;5030185;28;19913;-62
2023/03/16 04:40:16;;;;;;;;;;;;;;;4.66;75.83;101516.16;5027676;28;19917;-62
2023/03/16 04:42:42;;;;;;;;;;;;;;;4.67;76.35;101528.34;5023849;28;19914;-62
2023/03/16 04:45:07;;;;;;;;;;;;;;;4.68;76.62;101521.31;5027726;28;19976;-62
2023/03/16 04:47:33;;;;;;;;;;;;;;;4.68;76.52;101518.66;5016772;28;19948;-62
2023/03/16 04:49:59;;;;;;;;;;;;;;;4.66;76.41;101509.09;5028907;28;20405;-62
2023/03/16 04:52:24;;;;;;;;;;;;;;;4.68;76.35;101516.88;5027188;28;19987;-62
2023/03/16 04:54:50;;;;;;;;;;;;;;;4.69;76.23;101507.19;5027657;28;20417;-61
2023/03/16 04:57:18;;;;;;;;;;;;;;;4.71;76.66;101515.81;5020122;28;19920;-62
2023/03/16 04:59:43;;;;;;;;;;;;;;;4.71;76.37;101519.28;5027369;28;19913;-62
2023/03/16 05:02:08;;;;;;;;;;;;;;;4.71;76.47;101514.00;5020923;28;20004;-62
2023/03/16 05:04:33;;;;;;;;;;;;;;;4.72;76.17;101510.44;5029049;28;19967;-62
2023/03/16 05:06:58;;;;;;;;;;;;;;;4.73;76.62;101500.72;5030978;28;19960;-62
2023/03/16 05:09:24;;;;;;;;;;;;;;;4.71;76.49;101494.75;5018944;28;19975;-62
2023/03/16 05:11:49;;;;;;;;;;;;;;;4.71;76.78;101500.03;5027174;28;20433;-62
2023/03/16 05:14:15;;;;;;;;;;;;;;;4.71;76.79;101505.28;5022971;28;19914;-62
2023/03/16 05:16:40;;;;;;;;;;;;;;;4.70;77.01;101504.44;5022787;28;19917;-62
2023/03/16 05:19:06;;;;;;;;;;;;;;;4.68;76.92;101490.56;5025427;28;19963;-62
2023/03/16 05:21:33;;;;;;;;;;;;;;;4.68;77.09;101502.88;5024276;28;19945;-62
2023/03/16 05:23:58;;;;;;;;;;;;;;;4.67;77.27;101494.16;5025879;28;20341;-62
2023/03/16 05:26:26;;;;;;;;;;;;;;;4.67;77.33;101486.25;5030172;28;20382;-62
2023/03/16 05:28:51;;;;;;;;;;;;;;;4.66;77.87;101490.69;5030196;28;19913;-62
2023/03/16 05:31:17;;;;;;;;;;;;;;;4.65;77.83;101494.28;5021857;28;20020;-62
2023/03/16 05:33:43;;;;;;;;;;;;;;;4.63;77.75;101488.28;5030584;28;20394;-61
2023/03/16 05:36:08;;;;;;;;;;;;;;;4.65;77.89;101483.75;5023157;28;19928;-61
2023/03/16 05:38:35;;;;;;;;;;;;;;;4.66;77.57;101492.47;5030554;28;19917;-61
2023/03/16 05:41:03;;;;;;;;;;;;;;;4.64;77.58;101487.34;5023247;28;20428;-62
2023/03/16 05:43:28;;;;;;;;;;;;;;;4.66;77.79;101484.59;5019336;28;19928;-62
2023/03/16 05:45:53;;;;;;;;;;;;;;;4.65;78.35;101483.75;5026982;28;19913;-61
2023/03/16 05:48:20;;;;;;;;;;;;;;;4.64;78.61;101474.19;5024616;28;19928;-62
2023/03/16 05:50:45;;;;;;;;;;;;;;;4.67;78.25;101470.47;5024666;28;19921;-62
2023/03/16 05:53:10;;;;;;;;;;;;;;;4.68;78.45;101474.78;5024073;28;20306;-62
2023/03/16 05:55:35;;;;;;;;;;;;;;;4.67;78.61;101462.59;5023280;28;20331;-62
2023/03/16 05:58:00;;;;;;;;;;;;;;;4.69;78.99;101468.56;5020649;28;19929;-62
2023/03/16 06:00:26;;;;;;;;;;;;;;;4.70;78.97;101467.59;5029388;28;19917;-61
2023/03/16 06:02:51;;;;;;;;;;;;;;;4.69;78.98;101471.19;5026736;28;20063;-62
2023/03/16 06:05:18;;;;;;;;;;;;;;;4.69;79.29;101465.09;5028413;28;20011;-62
2023/03/16 06:07:43;;;;;;;;;;;;;;;4.69;79.62;101468.56;5021850;28;20356;-62
2023/03/16 06:10:09;;;;;;;;;;;;;;;4.71;79.25;101463.19;5025907;28;20450;-61
2023/03/16 06:12:34;;;;;;;;;;;;;;;4.70;78.90;101470.25;5025387;28;19926;-62
2023/03/16 06:15:00;;;;;;;;;;;;;;;4.72;78.92;101460.44;5026754;28;19979;-62
2023/03/16 06:17:25;;;;;;;;;;;;;;;4.71;78.77;101464.03;5021674;28;19923;-62
2023/03/16 06:19:51;;;;;;;;;;;;;;;4.71;78.78;101468.44;5025004;28;20433;-62
2023/03/16 06:22:17;;;;;;;;;;;;;;;4.70;78.36;101464.13;5025453;28;19917;-62
2023/03/16 06:24:42;;;;;;;;;;;;;;;4.70;78.31;101459.72;5028387;28;19959;-62
2023/03/16 06:27:07;;;;;;;;;;;;;;;4.71;78.49;101463.19;5028036;28;19921;-62
2023/03/16 06:29:33;;;;;;;;;;;;;;;4.69;78.93;101462.47;5020358;28;19968;-62
2023/03/16 06:31:58;;;;;;;;;;;;;;;4.70;78.36;101462.34;5017523;28;20032;-62
2023/03/16 06:34:23;;;;;;;;;;;;;;;4.69;79.03;101475.63;5018840;28;19920;-62
2023/03/16 06:36:48;;;;;;;;;;;;;;;4.68;79.33;101468.69;5023456;28;19917;-62
2023/03/16 06:39:13;;;;;;;;;;;;;;;4.68;79.18;101464.25;5026175;28;20523;-62
2023/03/16 06:41:41;;;;;;;;;;;;;;;4.71;78.96;101465.81;5022472;28;19923;-62
2023/03/16 06:44:06;;;;;;;;;;;;;;;4.70;79.52;101464.97;5028583;28;19917;-62
2023/03/16 06:46:31;;;;;;;;;;;;;;;4.72;79.59;101470.13;5026958;28;19971;-62
2023/03/16 06:48:57;;;;;;;;;;;;;;;4.71;79.77;101464.03;5025296;28;19951;-62
2023/03/16 06:51:22;;;;;;;;;;;;;;;4.73;79.70;101463.91;5022776;28;19971;-62
2023/03/16 06:53:47;;;;;;;;;;;;;;;4.76;79.61;101453.13;5025936;28;19959;-62
2023/03/16 06:56:12;;;;;;;;;;;;;;;4.76;79.43;101459.25;5026007;28;19924;-62
2023/03/16 06:58:38;;;;;;;;;;;;;;;4.79;79.34;101450.28;5028465;28;20008;-62
2023/03/16 07:01:03;;;;;;;;;;;;;;;4.82;79.02;101450.03;5024053;28;19921;-62
2023/03/16 07:03:28;;;;;;;;;;;;;;;4.85;78.24;101460.31;5021986;28;20012;-62
2023/03/16 07:05:54;;;;;;;;;;;;;;;4.87;78.33;101440.81;5027061;28;19924;-62
2023/03/16 07:08:19;;;;;;;;;;;;;;;4.91;78.81;101444.03;5024460;28;19918;-62
2023/03/16 07:10:44;;;;;;;;;;;;;;;4.94;78.81;101441.19;5022558;28;20275;-62
2023/03/16 07:13:09;;;;;;;;;;;;;;;4.95;78.94;101443.72;5023289;28;19921;-62
2023/03/16 07:15:34;;;;;;;;;;;;;;;5.00;79.05;101434.63;5018586;28;19959;-62
2023/03/16 07:17:59;;;;;;;;;;;;;;;5.01;78.48;101429.22;5025548;28;20354;-63
2023/03/16 07:20:27;;;;;;;;;;;;;;;5.00;79.17;101439.88;5026709;28;19959;-62
2023/03/16 07:22:52;;;;;;;;;;;;;;;5.02;79.57;101430.91;5027414;28;20421;-62
2023/03/16 07:25:17;;;;;;;;;;;;;;;5.06;79.17;101432.34;5028744;28;19914;-62
2023/03/16 07:27:44;;;;;;;;;;;;;;;5.06;79.52;101432.34;5026338;28;19975;-63
2023/03/16 07:30:12;;;;;;;;;;;;;;;5.09;79.83;101431.25;5021073;28;19953;-62
2023/03/16 07:32:38;;;;;;;;;;;;;;;5.10;79.94;101432.94;5022290;28;20406;-62
2023/03/16 07:35:03;;;;;;;;;;;;;;;5.11;80.37;101419.66;5025174;28;19917;-62
2023/03/16 07:37:29;;;;;;;;;;;;;;;5.18;79.96;101414.72;5026017;28;19936;-62
2023/03/16 07:39:55;;;;;;;;;;;;;;;5.18;80.17;101428.72;5018322;28;19924;-63
2023/03/16 07:42:21;;;;;;;;;;;;;;;5.23;79.70;101423.13;5024009;28;19921;-62
2023/03/16 07:44:46;;;;;;;;;;;;;;;5.26;79.40;101430.78;5011428;28;19925;-63
2023/03/16 07:47:12;;;;;;;;;;;;;;;5.28;79.68;101427.06;5024250;28;19924;-62
2023/03/16 07:49:37;;;;;;;;;;;;;;;5.31;79.53;101427.78;5023718;28;19921;-62
2023/03/16 07:52:02;;;;;;;;;;;;;;;5.35;79.45;101426.56;5017522;28;19963;-62
2023/03/16 07:54:27;;;;;;;;;;;;;;;5.37;79.50;101420.22;5017297;28;19923;-62
2023/03/16 07:56:52;;;;;;;;;;;;;;;5.40;79.78;101421.75;5020547;28;20021;-63
2023/03/16 07:59:19;;;;;;;;;;;;;;;5.43;79.37;101418.88;5020455;28;19913;-62
2023/03/16 08:01:45;;;;;;;;;;;;;;;5.53;78.91;101417.19;5022587;28;20333;-62
2023/03/16 08:04:11;;;;;;;;;;;;;;;5.54;78.88;101429.41;5026824;28;19921;-62
2023/03/16 08:06:36;;;;;;;;;;;;;;;5.58;78.81;101413.22;5023282;28;19917;-62
2023/03/16 08:09:01;;;;;;;;;;;;;;;5.59;79.09;101425.44;5026505;28;20008;-62
2023/03/16 08:11:26;;;;;;;;;;;;;;;5.68;78.88;101426.47;5023868;28;20310;-63
2023/03/16 08:13:55;;;;;;;;;;;;;;;5.71;78.61;101418.31;5024353;28;19971;-63
2023/03/16 08:16:23;;;;;;;;;;;;;;;5.73;78.79;101419.03;5024408;28;19953;-62
2023/03/16 08:18:49;;;;;;;;;;;;;;;5.83;78.61;101422.59;5021158;28;20004;-63
2023/03/16 08:21:15;;;;;;;;;;;;;;;5.83;78.69;101430.50;5019009;28;19995;-62
2023/03/16 08:23:42;;;;;;;;;;;;;;;5.86;78.40;101424.16;5024441;28;20500;-62
2023/03/16 08:26:08;;;;;;;;;;;;;;;5.92;78.39;101428.94;5028376;28;19913;-62
2023/03/16 08:28:34;;;;;;;;;;;;;;;5.91;78.04;101440.47;5022741;28;20421;-62
2023/03/16 08:30:59;;;;;;;;;;;;;;;5.94;77.91;101434.94;5025372;28;20469;-62
2023/03/16 08:33:24;;;;;;;;;;;;;;;6.00;77.97;101444.13;5026353;28;20426;-62
2023/03/16 08:35:50;;;;;;;;;;;;;;;6.04;77.96;101440.28;5026812;28;19928;-62
2023/03/16 08:38:15;;;;;;;;;;;;;;;6.14;77.35;101435.94;5024952;28;20682;-62
2023/03/16 08:40:45;;;;;;;;;;;;;;;6.14;77.24;101441.22;5016848;28;19918;-62
2023/03/16 08:43:10;;;;;;;;;;;;;;;6.18;77.14;101430.28;5022179;28;19928;-63
2023/03/16 08:45:36;;;;;;;;;;;;;;;6.26;76.84;101431.44;5025341;28;19917;-62
2023/03/16 08:48:01;;;;;;;;;;;;;;;6.28;76.37;101443.53;5022711;28;19968;-62
2023/03/16 08:50:27;;;;;;;;;;;;;;;6.35;76.36;101428.00;5026893;28;19963;-62
2023/03/16 08:52:52;;;;;;;;;;;;;;;6.41;76.08;101431.00;5025415;28;19999;-62
2023/03/16 08:55:17;;;;;;;;;;;;;;;6.48;76.14;101424.22;5023483;28;19921;-62
2023/03/16 08:57:44;;;;;;;;;;;;;;;6.49;75.70;101420.63;5018432;28;19917;-62
2023/03/16 09:00:13;;;;;;;;;;;;;;;6.59;75.28;101420.66;5022927;28;20374;-62
2023/03/16 09:02:39;;;;;;;;;;;;;;;6.58;75.01;101420.78;5020450;28;19914;-62
2023/03/16 09:05:05;;;;;;;;;;;;;;;6.62;75.20;101414.28;5024482;28;19917;-63
2023/03/16 09:07:34;;;;;;;;;;;;;;;6.68;75.07;101413.78;5020859;28;19917;-62
2023/03/16 09:09:59;;;;;;;;;;;;;;;6.76;75.19;101401.59;5023789;28;20012;-63
2023/03/16 09:12:25;;;;;;;;;;;;;;;6.77;74.68;101405.91;5023934;28;20000;-63
2023/03/16 09:14:50;;;;;;;;;;;;;;;6.84;74.24;101403.56;5028261;28;19975;-63
2023/03/16 09:17:15;;;;;;;;;;;;;;;6.88;74.18;101401.50;5029140;28;19924;-63
2023/03/16 09:19:41;;;;;;;;;;;;;;;6.91;74.16;101411.78;5027635;28;19924;-63
2023/03/16 09:22:06;;;;;;;;;;;;;;;6.97;74.29;101404.19;5024915;28;20364;-63
2023/03/16 09:24:31;;;;;;;;;;;;;;;7.03;73.96;101416.84;5022389;28;20443;-63
2023/03/16 09:26:57;;;;;;;;;;;;;;;7.08;73.63;101408.53;5027607;28;20424;-63
2023/03/16 09:29:23;;;;;;;;;;;;;;;7.15;73.50;101405.22;5022769;28;19925;-63
2023/03/16 09:31:48;;;;;;;;;;;;;;;7.25;73.31;101396.50;5022227;28;19917;-63
2023/03/16 09:34:14;;;;;;;;;;;;;;;7.36;72.93;101393.72;5025313;28;19913;-61
2023/03/16 09:36:39;;;;;;;;;;;;;;;7.43;72.18;101400.13;5028653;28;20000;-62
2023/03/16 09:39:04;;;;;;;;;;;;;;;7.47;72.13;101391.78;5025010;28;19917;-62
2023/03/16 09:41:43;;;;;;;;;;;;;;;7.55;72.06;101399.06;5019402;28;19924;-62
2023/03/16 09:44:09;;;;;;;;;;;;;;;7.64;72.23;101395.59;5021397;28;19936;-62
2023/03/16 09:46:37;;;;;;;;;;;;;;;7.71;71.82;101394.03;5023742;28;19918;-62
2023/03/16 09:49:03;;;;;;;;;;;;;;;7.73;71.60;101397.38;5020489;28;20043;-63
2023/03/16 09:51:50;;;;;;;;;;;;;;;7.81;71.01;101394.06;5027037;28;20414;-63
2023/03/16 09:54:38;;;;;;;;;;;;;;;7.90;70.32;101389.75;5027702;28;20298;-63
2023/03/16 09:57:03;;;;;;;;;;;;;;;8.02;70.01;101385.97;5009338;28;19960;-62
2023/03/16 09:59:29;;;;;;;;;;;;;;;8.13;69.63;101388.47;5025495;28;19972;-63
2023/03/16 10:02:03;;;;;;;;;;;;;;;8.30;69.27;101384.25;5025801;28;19917;-62
2023/03/16 10:04:49;;;;;;;;;;;;;;;8.44;68.33;101386.50;5023160;28;19947;-62
2023/03/16 10:07:37;;;;;;;;;;;;;;;8.53;67.52;101384.81;5027423;28;19924;-62
2023/03/16 10:10:08;;;;;;;;;;;;;;;8.60;67.04;101370.84;5021882;28;20418;-63
2023/03/16 10:12:36;;;;;;;;;;;;;;;8.67;66.08;101361.34;5011516;28;19924;-62
2023/03/16 10:15:10;;;;;;;;;;;;;;;8.87;66.61;101366.56;5018367;28;19921;-62
2023/03/16 10:17:48;;;;;;;;;;;;;;;9.04;65.52;101362.31;5016930;28;19917;-62
2023/03/16 10:20:16;;;;;;;;;;;;;;;9.14;64.59;101357.78;5026819;28;20559;-62
2023/03/16 10:22:43;;;;;;;;;;;;;;;9.13;63.51;101366.69;5016482;28;20004;-62
2023/03/16 10:25:31;;;;;;;;;;;;;;;9.07;63.27;101356.69;5024839;28;19924;-62
2023/03/16 10:27:56;;;;;;;;;;;;;;;9.11;63.66;101363.38;5019324;28;19913;-62
2023/03/16 10:30:24;;;;;;;;;;;;;;;9.18;63.43;101365.28;5023468;28;19932;-63
2023/03/16 10:32:50;;;;;;;;;;;;;;;9.34;63.09;101348.72;5026802;28;19917;-62
2023/03/16 10:35:36;;;;;;;;;;;;;;;9.45;62.64;101355.63;5021809;28;19924;-63
2023/03/16 10:38:02;;;;;;;;;;;;;;;9.62;62.36;101354.81;5023961;28;19918;-63
2023/03/16 10:40:30;;;;;;;;;;;;;;;9.75;62.06;101354.41;5020234;28;19921;-63
2023/03/16 10:42:55;;;;;;;;;;;;;;;9.85;61.57;101345.41;5025315;28;20306;-63
2023/03/16 10:45:24;;;;;;;;;;;;;;;10.01;61.41;101347.31;5026825;28;20410;-63
2023/03/16 10:47:49;;;;;;;;;;;;;;;10.15;60.88;101343.28;5026148;28;19913;-63
2023/03/16 10:50:19;;;;;;;;;;;;;;;10.25;59.94;101341.41;5023772;28;20409;-62
2023/03/16 10:52:47;;;;;;;;;;;;;;;10.32;59.35;101347.75;5021802;28;19925;-62
2023/03/16 10:55:15;;;;;;;;;;;;;;;10.33;58.75;101341.44;5019307;28;19921;-62
2023/03/16 10:57:41;;;;;;;;;;;;;;;10.35;58.16;101335.97;5027075;28;19971;-62
2023/03/16 11:00:11;;;;;;;;;;;;;;;10.27;57.70;101331.44;5027821;28;19921;-63
2023/03/16 11:02:38;;;;;;;;;;;;;;;10.29;58.16;101339.25;5020293;28;19921;-62
2023/03/16 11:05:13;;;;;;;;;;;;;;;10.29;57.63;101315.38;5025323;28;19940;-63
2023/03/16 11:07:38;;;;;;;;;;;;;;;10.32;57.54;101323.00;5026095;28;20002;-63
2023/03/16 11:10:23;;;;;;;;;;;;;;;10.41;57.60;101312.31;5022200;28;20004;-63
2023/03/16 11:12:49;;;;;;;;;;;;;;;10.45;56.44;101318.13;5021672;28;19940;-63
2023/03/16 11:15:14;;;;;;;;;;;;;;;10.35;56.05;101318.22;5021562;28;20414;-63
2023/03/16 11:17:43;;;;;;;;;;;;;;;10.40;56.54;101315.09;5022771;28;19918;-63
2023/03/16 11:20:29;;;;;;;;;;;;;;;10.48;56.62;101300.06;5019180;28;20489;-62
2023/03/16 11:22:55;;;;;;;;;;;;;;;10.50;56.00;101299.91;5018327;28;19918;-63
2023/03/16 11:25:27;;;;;;;;;;;;;;;10.58;56.68;101291.94;5024297;28;19939;-62
2023/03/16 11:28:12;;;;;;;;;;;;;;;10.71;57.44;101305.63;5026834;28;20016;-63
2023/03/16 11:30:40;;;;;;;;;;;;;;;10.88;56.91;101293.22;5024771;28;20005;-63
2023/03/16 11:33:09;;;;;;;;;;;;;;;10.98;57.28;101291.25;5025327;28;19917;-62
2023/03/16 11:35:40;;;;;;;;;;;;;;;11.01;56.15;101290.97;5020838;28;19921;-62
2023/03/16 11:38:19;;;;;;;;;;;;;;;11.06;56.05;101279.84;5024976;28;19920;-62
2023/03/16 11:40:57;;;;;;;;;;;;;;;11.09;55.56;101275.03;5021909;28;19917;-62
2023/03/16 11:43:41;;;;;;;;;;;;;;;11.11;54.88;101273.03;5020000;28;19999;-63
2023/03/16 11:46:09;;;;;;;;;;;;;;;11.11;55.17;101273.03;5022583;28;19971;-63
2023/03/16 11:48:53;;;;;;;;;;;;;;;11.11;53.84;101258.91;5015656;28;19959;-63
2023/03/16 11:51:21;;;;;;;;;;;;;;;11.13;54.69;101259.56;5022375;28;19921;-63
2023/03/16 11:53:47;;;;;;;;;;;;;;;11.28;55.54;101260.59;5022828;28;19921;-63
2023/03/16 11:56:27;;;;;;;;;;;;;;;11.45;55.58;101259.59;5020215;28;20324;-63
2023/03/16 11:59:02;;;;;;;;;;;;;;;11.56;53.61;101253.09;5022929;28;20501;-64
2023/03/16 12:01:40;;;;;;;;;;;;;;;11.60;54.50;101259.78;5020880;28;19952;-63
2023/03/16 12:04:06;;;;;;;;;;;;;;;11.64;54.02;101254.97;5018178;28;20566;-63
2023/03/16 12:06:40;;;;;;;;;;;;;;;11.65;53.40;101248.63;5019171;28;19924;-63
2023/03/16 12:09:05;;;;;;;;;;;;;;;11.61;52.87;101247.31;5024202;28;19917;-63
2023/03/16 12:11:50;;;;;;;;;;;;;;;11.55;52.60;101234.66;5020181;28;20268;-63
2023/03/16 12:14:21;;;;;;;;;;;;;;;11.62;52.75;101244.47;5021542;28;19928;-63
2023/03/16 12:16:56;;;;;;;;;;;;;;;11.76;52.11;101245.63;5024276;28;19928;-62
2023/03/16 12:19:25;;;;;;;;;;;;;;;11.86;52.32;101224.19;5021511;28;20027;-63
2023/03/16 12:22:03;;;;;;;;;;;;;;;12.05;51.76;101221.13;5021882;28;19939;-63
2023/03/16 12:24:33;;;;;;;;;;;;;;;12.26;52.10;101229.41;5027506;28;20350;-63
2023/03/16 12:26:58;;;;;;;;;;;;;;;12.33;51.13;101237.53;5023615;28;19921;-63
2023/03/16 12:29:40;;;;;;;;;;;;;;;12.34;50.64;101220.53;5026248;28;19922;-63
2023/03/16 12:32:12;;;;;;;;;;;;;;;12.43;51.00;101224.81;5023067;28;20000;-63
2023/03/16 12:34:45;;;;;;;;;;;;;;;12.61;50.79;101211.25;5026910;28;19917;-63
2023/03/16 12:37:37;;;;;;;;;;;;;;;12.68;50.18;101213.03;5023166;28;19913;-63
2023/03/16 12:40:35;;;;;;;;;;;;;;;12.73;50.20;101188.56;5018302;28;19967;-63
2023/03/16 12:43:03;;;;;;;;;;;;;;;12.78;48.79;101190.69;4979643;28;19921;-63
2023/03/16 12:45:41;;;;;;;;;;;;;;;12.80;49.09;101186.84;5022696;28;19979;-63
2023/03/16 12:48:26;;;;;;;;;;;;;;;12.84;49.68;101172.16;5026683;28;19920;-63